首页
METAR-TAF:

METAR-TAF

机场 :

布爾諾, 捷克共和国

纬度: 49-09N, 经度: 016-42E, 海拔: 241米

当前天气观测

该预报发布于35分钟前的03:00 UTC
风速7节,风向东转东南
温度 -4°C
湿度 86%
气压 1008 hPa
能见度10公里或以上
1500米以下无云,无积雨云

METAR: LKTB 120300Z 11007KT CAVOK M04/M06 Q1008 NOSIG

时间: 04:35 (03:35 UTC)

预报

该预报发布于4小时和35分钟前的23:00 UTC
预报有效从12日的 00点(UTC)到 13日的 06点(UTC)
风速7节,风向东南
能见度10公里或以上
1500米以下无云,无积雨云
成为
从 12日的 00点(UTC)到 12日的 03点(UTC)
能见度10公里或以上
散云层高于700英尺
阴天层高于2000英尺
短暂存在
从 12日的 03点(UTC)到 13日的 06点(UTC)
风速2节,风向多变
能見度: 2700
阴天层高于500英尺
小雪, 轻雾
几率 30% :
短暂存在
从 12日的 17点(UTC)到 13日的 06点(UTC)
能見度: 1400
多云层高于300英尺

TAF: LKTB 112300Z 1200/1306 13007KT CAVOK BECMG 1200/1203 9999 SCT007 OVC020 TEMPO 1203/1306 VRB02KT 2700 -SN BR OVC005 PROB30 TEMPO 1217/1306 1400 SN BKN003

超过4000个机场的气象观测和天气预报(METAR&TAF报告)。

可查询的气象台以黄色和红色小点在地图上表示。

将鼠标移到小点上方,可查看气象台名称。

然后点击查看天气观测和预报。

如需切换地图:点击带黑十字的绿色按钮放大地图;点击带横线的绿色按钮缩小地图;或者点击绿色箭头查看邻近地区的地图。


METAR-TAF: